Latest Weather Observations for Tennant Creek

IDD60801

Issued at 10:21 pm CST Monday 6 July 2020 (issued every 10 minutes, with the page automatically refreshed every 10 minutes)

About weather observations | Map of weather stations | Latest weather observations for NT | Other Formats
Station Details ID: 015135 Name: TENNANT CREEK AIRPORT Lat: -19.64 Lon: 134.18 Height: 375.7 m
Data from the previous 72 hours. | See also: Recent months at Tennant Creek
Date/Time
CST
Temp
°C
App
Temp
°C
Dew
Point
°C
Rel
Hum
%
Delta-T
°C
Wind Press
QNH
hPa
Press
MSL
hPa
Rain since
9am
mm
Dir  Spd
km/h
Gust
km/h
Spd
kts
Gust
kts
06/10:00pm 15.1 9.1 -1.5 32 6.9 SE 20 28 11 15 1022.9 1021.9 0.0
06/09:30pm 15.4 10.0 -1.6 31 7.1 SE 17 20 9 11 1022.9 1021.9 0.0
06/09:00pm 16.0 10.6 -1.5 30 7.3 SE 17 20 9 11 1022.8 1021.8 0.0
06/08:30pm 16.5 11.1 -1.6 29 7.6 SE 17 20 9 11 1022.8 1021.8 0.0
06/08:00pm 17.0 11.9 -1.6 28 7.9 ESE 15 19 8 10 1022.8 1021.8 0.0
06/07:30pm 17.6 12.5 -2.1 26 8.3 SE 15 17 8 9 1022.5 1021.5 0.0
06/07:00pm 18.3 13.6 -2.0 25 8.7 SE 13 19 7 10 1022.2 1021.2 0.0
06/06:30pm 19.0 13.4 -2.6 23 9.1 ESE 17 22 9 12 1021.9 1020.9 0.0
06/06:00pm 19.8 13.7 -2.5 22 9.5 ESE 20 26 11 14 1021.4 1020.4 0.0
06/05:30pm 20.6 13.7 -2.5 21 9.9 ESE 24 32 13 17 1021.2 1020.2 0.0
06/05:00pm 21.1 14.2 -2.7 20 10.3 ESE 24 32 13 17 1020.9 1019.8 0.0
06/04:30pm 21.2 14.2 -3.3 19 10.4 ESE 24 32 13 17 1020.9 1019.8 0.0
06/04:00pm 21.4 14.9 -2.5 20 10.4 ESE 22 32 12 17 1020.8 1019.7 0.0
06/03:30pm 21.4 14.9 -2.5 20 10.3 SE 22 32 12 17 1021.0 1020.0 0.0
06/03:00pm 21.0 13.8 -2.1 21 10.0 ESE 26 37 14 20 1021.1 1020.1 0.0
06/02:30pm 20.4 13.5 -2.6 21 9.8 ESE 24 32 13 17 1021.3 1020.3 0.0
06/02:00pm 20.3 13.1 -2.1 22 9.7 ESE 26 33 14 18 1021.7 1020.7 0.0
06/01:30pm 19.8 12.6 -1.9 23 9.4 ESE 26 37 14 20 1022.3 1021.3 0.0
06/01:00pm 19.5 12.3 -2.2 23 9.3 E 26 37 14 20 1022.5 1021.5 0.0
06/12:30pm 19.1 11.7 -0.8 26 8.7 ESE 28 39 15 21 1023.0 1022.0 0.0
06/12:00pm 18.0 10.1 -1.3 27 8.3 ESE 30 37 16 20 1023.7 1022.7 0.0
06/11:30am 17.2 9.0 -1.0 29 7.8 ESE 32 37 17 20 1024.2 1023.2 0.0
06/11:00am 16.4 8.2 -1.2 30 7.5 ESE 32 43 17 23 1024.6 1023.6 0.0
06/10:30am 15.9 7.5 -0.8 32 7.1 ESE 33 43 18 23 1024.7 1023.7 0.0
06/10:00am 14.7 6.3 -1.0 34 6.6 SE 33 48 18 26 1024.7 1023.7 0.0
06/09:30am 14.1 5.9 -0.7 36 6.2 ESE 32 39 17 21 1025.1 1024.1 0.0
06/09:00am 12.8 4.4 -1.1 38 5.7 ESE 33 46 18 25 1024.7 1023.7 0.0
06/08:30am 12.1 3.9 -1.1 40 5.4 ESE 32 48 17 26 1024.5 1023.5 0.0
06/08:00am 11.2 3.0 -0.9 43 4.9 SE 32 46 17 25 1023.6 1022.6 0.0
06/07:30am 10.6 3.9 -1.1 44 4.7 SE 24 37 13 20 1023.8 1022.8 0.0
06/07:00am 10.5 4.2 -1.2 44 4.7 ESE 22 33 12 18 1023.6 1022.6 0.0
06/06:30am 10.7 3.2 -1.4 43 4.8 SE 28 33 15 18 1023.3 1022.3 0.0
06/06:00am 10.9 3.4 -1.5 42 4.9 ESE 28 37 15 20 1023.0 1022.0 0.0
06/05:30am 11.1 4.3 -1.6 41 5.1 SE 24 32 13 17 1023.1 1022.1 0.0
06/05:00am 11.4 4.2 -1.7 40 5.3 SE 26 35 14 19 1022.8 1021.8 0.0
06/04:30am 11.6 4.4 -1.9 39 5.4 SE 26 33 14 18 1022.8 1021.8 0.0
06/04:00am 11.9 4.7 -1.9 38 5.5 SE 26 35 14 19 1022.8 1021.8 0.0
06/03:30am 12.0 4.0 -2.2 37 5.6 SE 30 41 16 22 1022.6 1021.6 0.0
06/03:00am 12.4 4.4 -2.2 36 5.8 ESE 30 39 16 21 1022.6 1021.6 0.0
06/02:41am 12.5 4.5 -2.5 35 6.0 SE 30 48 16 26 1022.5 1021.5 0.0
06/02:30am 12.6 4.6 -2.4 35 6.0 ESE 30 39 16 21 1022.6 1021.6 0.0
06/02:00am 12.9 6.1 -2.2 35 6.1 SE 24 33 13 18 1022.8 1021.8 0.0
06/01:30am 13.4 6.2 -2.1 34 6.3 ESE 26 37 14 20 1022.8 1021.8 0.0
06/01:00am 13.9 5.9 -2.5 32 6.6 ESE 30 37 16 20 1023.0 1022.0 0.0
06/12:30am 14.3 6.7 -2.1 32 6.7 ESE 28 37 15 20 1022.9 1021.9 0.0
06/12:00am 14.4 6.7 -2.9 30 6.9 ESE 28 35 15 19 1022.9 1021.9 0.0
 
Date/Time
CST
Temp
°C
App
Temp
°C
Dew
Point
°C
Rel
Hum
%
Delta-T
°C
Wind Press
QNH
hPa
Press
MSL
hPa
Rain since
9am
mm
Dir  Spd
km/h
Gust
km/h
Spd
kts
Gust
kts
05/11:30pm 14.7 7.4 -3.1 29 7.1 ESE 26 32 14 17 1022.9 1021.9 0.0
05/11:00pm 15.2 8.6 -3.2 28 7.4 ESE 22 30 12 16 1022.9 1021.9 0.0
05/10:30pm 15.7 8.7 -3.2 27 7.6 ESE 24 32 13 17 1022.9 1021.9 0.0
05/10:00pm 16.0 9.4 -3.5 26 7.9 ESE 22 30 12 16 1022.8 1021.8 0.0
05/09:30pm 16.2 10.0 -3.3 26 7.9 SE 20 30 11 16 1022.9 1021.9 0.0
05/09:00pm 16.2 10.1 -3.8 25 8.0 ESE 19 24 10 13 1022.7 1021.7 0.0
05/08:30pm 16.9 10.8 -3.8 24 8.4 SE 19 26 10 14 1022.4 1021.4 0.0
05/08:00pm 17.3 11.6 -4.0 23 8.6 SE 17 20 9 11 1022.2 1021.2 0.0
05/07:30pm 18.1 12.4 -3.9 22 9.0 ESE 17 24 9 13 1021.9 1020.9 0.0
05/07:00pm 18.7 12.7 -3.4 22 9.2 ESE 19 26 10 14 1021.6 1020.6 0.0
05/06:30pm 19.5 13.5 -3.4 21 9.6 SE 19 28 10 15 1021.3 1020.3 0.0
05/06:00pm 20.2 13.1 -4.1 19 10.1 SE 24 32 13 17 1021.0 1020.0 0.0
05/05:30pm 21.1 13.2 -4.9 17 10.7 ESE 28 37 15 20 1020.8 1019.7 0.0
05/05:00pm 21.4 13.9 -4.6 17 10.8 ESE 26 35 14 19 1020.7 1019.6 0.0
05/04:30pm 21.9 14.4 -4.2 17 11.0 ESE 26 37 14 20 1020.5 1019.4 0.0
05/04:00pm 22.1 13.5 -4.1 17 11.1 ESE 32 44 17 24 1020.6 1019.5 0.0
05/03:30pm 21.9 14.1 -3.5 18 10.8 ESE 28 35 15 19 1020.8 1019.7 0.0
05/03:00pm 22.0 14.7 -2.7 19 10.7 ESE 26 35 14 19 1021.0 1020.0 0.0
05/02:30pm 21.3 12.9 -2.5 20 10.3 ESE 32 43 17 23 1021.2 1020.2 0.0
05/02:00pm 22.0 14.3 -2.7 19 10.7 ESE 28 37 15 20 1021.6 1020.6 0.0
05/01:30pm 21.6 14.1 -1.6 21 10.2 E 28 41 15 22 1022.1 1021.1 0.0
05/01:00pm 20.6 13.2 -0.7 24 9.5 ESE 28 39 15 21 1022.6 1021.6 0.0
05/12:30pm 19.6 11.5 -0.4 26 8.9 ESE 32 44 17 24 1023.3 1022.3 0.0
05/12:00pm 20.0 12.0 0.5 27 8.8 SE 32 43 17 23 1023.8 1022.8 0.0
05/11:30am 19.0 11.0 1.5 31 8.0 ESE 33 44 18 24 1024.3 1023.3 0.0
05/11:00am 17.9 9.1 1.4 33 7.5 ESE 37 50 20 27 1024.7 1023.7 0.0
05/10:30am 16.9 8.2 1.8 36 6.8 ESE 37 48 20 26 1024.9 1023.9 0.0
05/10:00am 15.8 6.8 2.2 40 6.2 ESE 39 54 21 29 1025.1 1024.1 0.0
05/09:39am 15.4 6.7 2.2 41 6.0 ESE 37 56 20 30 1025.0 1024.0 0.0
05/09:30am 15.2 6.2 2.4 42 5.8 ESE 39 52 21 28 1025.1 1024.1 0.0
05/09:06am 14.7 6.0 2.3 43 5.6 ESE 37 56 20 30 1025.1 1024.1 0.0
05/09:00am 14.6 5.9 2.2 43 5.6 SE 37 52 20 28 1025.0 1024.0 0.0
05/08:41am 14.1 6.2 2.0 44 5.4 SE 33 54 18 29 1024.9 1023.9 0.0
05/08:30am 14.0 6.1 2.0 44 5.3 ESE 33 43 18 23 1024.9 1023.9 0.0
05/08:00am 13.2 6.6 1.8 46 5.0 SE 26 32 14 17 1024.5 1023.5 0.0
05/07:30am 12.4 6.9 1.7 48 4.7 SE 20 30 11 16 1024.3 1023.3 0.0
05/07:00am 12.4 6.8 1.4 47 4.8 ESE 20 26 11 14 1024.1 1023.1 0.0
05/06:30am 12.9 7.4 1.6 46 4.9 SE 20 30 11 16 1023.8 1022.8 0.0
05/06:00am 13.0 7.4 1.4 45 5.0 SE 20 28 11 15 1023.7 1022.7 0.0
05/05:30am 13.3 8.3 1.6 45 5.1 SE 17 22 9 12 1023.6 1022.6 0.0
05/05:00am 13.7 8.3 1.4 43 5.4 SE 19 28 10 15 1023.4 1022.4 0.0
05/04:30am 13.9 8.5 1.2 42 5.5 SE 19 26 10 14 1023.4 1022.4 0.0
05/04:00am 14.3 8.7 0.9 40 5.9 SE 20 32 11 17 1023.4 1022.4 0.0
05/03:30am 14.6 8.2 0.8 39 6.0 ESE 24 30 13 16 1023.1 1022.1 0.0
05/03:00am 14.7 7.9 0.5 38 6.1 ESE 26 37 14 20 1023.0 1022.0 0.0
05/02:30am 14.8 7.6 0.6 38 6.2 ESE 28 37 15 20 1022.7 1021.7 0.0
05/02:00am 15.0 7.0 0.4 37 6.4 ESE 32 39 17 21 1023.0 1022.0 0.0
05/01:30am 15.1 7.4 0.2 36 6.4 ESE 30 37 16 20 1023.3 1022.3 0.0
05/01:00am 15.3 8.0 -0.1 35 6.6 ESE 28 37 15 20 1023.8 1022.8 0.0
05/12:30am 15.5 7.8 -0.3 34 6.8 ESE 30 37 16 20 1023.9 1022.9 0.0
05/12:00am 15.7 8.3 -0.5 33 6.9 SE 28 41 15 22 1024.1 1023.1 0.0
 
Date/Time
CST
Temp
°C
App
Temp
°C
Dew
Point
°C
Rel
Hum
%
Delta-T
°C
Wind Press
QNH
hPa
Press
MSL
hPa
Rain since
9am
mm
Dir  Spd
km/h
Gust
km/h
Spd
kts
Gust
kts
04/11:30pm 16.0 8.3 0.2 34 6.9 SE 30 41 16 22 1023.9 1022.9 0.0
04/11:00pm 16.5 9.6 0.2 33 7.2 SE 26 39 14 21 1023.9 1022.9 0.0
04/10:30pm 17.0 10.0 -0.7 30 7.6 SE 26 39 14 21 1023.8 1022.8 0.0
04/10:00pm 17.4 10.6 -1.8 27 8.2 SE 24 33 13 18 1024.2 1023.2 0.0
04/09:30pm 17.7 10.5 -2.0 26 8.3 ESE 26 37 14 20 1023.8 1022.8 0.0
04/09:00pm 18.1 10.8 -2.8 24 8.7 SE 26 35 14 19 1023.9 1022.9 0.0
04/08:30pm 18.3 11.0 -3.2 23 8.9 SE 26 35 14 19 1023.7 1022.7 0.0
04/08:00pm 18.6 11.6 -3.5 22 9.2 SE 24 32 13 17 1023.5 1022.5 0.0
04/07:30pm 18.7 12.7 -2.8 23 9.0 SE 19 26 10 14 1023.3 1022.3 0.0
04/07:00pm 19.1 13.9 -3.1 22 9.3 SE 15 20 8 11 1022.8 1021.8 0.0
04/06:30pm 19.5 13.3 -3.4 21 9.6 SE 20 28 11 15 1022.6 1021.6 0.0
04/06:00pm 20.0 13.8 -3.0 21 9.7 SE 20 28 11 15 1022.6 1021.6 0.0
04/05:30pm 20.5 13.6 -2.5 21 9.9 ESE 24 33 13 18 1022.4 1021.4 0.0
04/05:00pm 21.2 14.8 -2.0 21 10.2 ESE 22 32 12 17 1022.5 1021.5 0.0
04/04:30pm 21.2 13.6 -2.0 21 10.1 ESE 28 35 15 19 1022.3 1021.3 0.0
04/04:00pm 21.3 12.8 -3.2 19 10.5 ESE 32 41 17 22 1022.2 1021.2 0.0
04/03:30pm 21.5 13.1 -2.4 20 10.4 ESE 32 43 17 23 1022.2 1021.2 0.0
04/03:00pm 21.5 13.0 -3.1 19 10.5 ESE 32 43 17 23 1022.5 1021.5 0.0
04/02:30pm 21.0 12.6 -2.8 20 10.2 ESE 32 44 17 24 1022.6 1021.6 0.0
04/02:00pm 21.3 13.0 -1.9 21 10.2 SE 32 43 17 23 1022.6 1021.6 0.0
04/01:30pm 20.3 11.8 -1.5 23 9.5 SE 33 48 18 26 1023.3 1022.3 0.0
04/01:00pm 20.0 11.9 -0.6 25 9.2 ESE 32 41 17 22 1024.3 1023.3 0.0
04/12:31pm 19.4 11.2 -1.1 25 9.0 ESE 32 50 17 27 1025.1 1024.1 0.0
04/12:30pm 19.8 11.6 -0.8 25 9.1 ESE 32 41 17 22 1025.1 1024.1 0.0
04/12:00pm 18.3 10.0 0.0 29 8.1 SE 33 50 18 27 1025.6 1024.7 0.0
04/11:30am 17.6 8.9 -0.2 30 7.8 ESE 35 46 19 25 1025.7 1024.8 0.0
04/11:00am 16.5 7.5 0.2 33 7.2 ESE 37 50 20 27 1026.2 1025.2 0.0
04/10:30am 16.1 7.5 0.3 34 6.9 ESE 35 46 19 25 1026.4 1025.4 0.0
04/10:00am 16.1 6.4 0.3 34 6.9 ESE 41 56 22 30 1026.7 1025.7 0.0
04/09:32am 15.4 6.5 0.8 37 6.4 ESE 37 56 20 30 1026.9 1025.9 0.0
04/09:30am 15.4 6.1 0.8 37 6.4 ESE 39 56 21 30 1026.9 1025.9 0.0
04/09:19am 15.0 5.7 0.8 38 6.2 ESE 39 57 21 31 1026.9 1025.9 0.0
04/09:00am 14.6 4.4 0.8 39 6.0 ESE 44 57 24 31 1026.7 1025.7 0.0
04/08:37am 13.7 4.0 0.7 41 5.6 ESE 41 59 22 32 1026.7 1025.7 0.0
04/08:30am 13.3 4.0 0.7 42 5.4 ESE 39 56 21 30 1026.6 1025.6 0.0
04/08:05am 13.5 5.3 0.5 41 5.6 ESE 33 54 18 29 1026.5 1025.5 0.0
04/08:00am 13.4 5.4 0.4 41 5.6 ESE 32 48 17 26 1026.4 1025.4 0.0
04/07:30am 12.9 6.0 0.3 42 5.3 ESE 26 35 14 19 1026.3 1025.3 0.0
04/07:00am 12.9 5.3 0.3 42 5.4 ESE 30 41 16 22 1026.2 1025.2 0.0
04/06:30am 13.2 5.6 0.3 41 5.5 ESE 30 37 16 20 1025.9 1025.0 0.0
04/06:00am 13.6 6.3 0.3 40 5.7 ESE 28 35 15 19 1025.4 1024.4 0.0
04/05:30am 13.8 6.1 0.1 39 5.8 SE 30 43 16 23 1025.2 1024.2 0.0
04/05:00am 14.1 6.4 0.0 38 6.0 SE 30 39 16 21 1024.9 1023.9 0.0
04/04:30am 14.5 6.4 0.0 37 6.2 SE 32 44 17 24 1024.9 1023.9 0.0
04/04:00am 14.9 7.2 0.0 36 6.4 ESE 30 39 16 21 1024.9 1023.9 0.0
04/03:37am 15.1 7.1 0.2 36 6.5 ESE 32 50 17 27 1024.5 1023.5 0.0
04/03:30am 15.3 7.1 0.3 36 6.5 ESE 33 46 18 25 1024.4 1023.4 0.0
04/03:00am 15.7 7.7 0.3 35 6.7 ESE 32 39 17 21 1024.5 1023.5 0.0
04/02:30am 16.2 8.1 0.7 35 6.8 ESE 33 48 18 26 1024.7 1023.7 0.0
04/02:00am 16.6 9.4 0.7 34 7.1 ESE 28 39 15 21 1024.8 1023.8 0.0
04/01:30am 17.1 9.2 1.1 34 7.2 ESE 32 41 17 22 1024.9 1023.9 0.0
04/01:00am 17.6 10.1 1.2 33 7.4 SE 30 39 16 21 1024.8 1023.8 0.0
04/12:30am 18.0 10.2 1.5 33 7.5 ESE 32 41 17 22 1024.8 1023.8 0.0
04/12:00am 18.5 11.0 1.5 32 7.8 ESE 30 41 16 22 1024.7 1023.7 0.0
 
Date/Time
CST
Temp
°C
App
Temp
°C
Dew
Point
°C
Rel
Hum
%
Delta-T
°C
Wind Press
QNH
hPa
Press
MSL
hPa
Rain since
9am
mm
Dir  Spd
km/h
Gust
km/h
Spd
kts
Gust
kts
03/11:30pm 18.9 11.1 1.9 32 7.8 ESE 32 41 17 22 1024.8 1023.8 0.0
03/11:08pm 19.2 11.4 1.7 31 8.1 ESE 32 50 17 27 1024.7 1023.7 0.0
03/11:00pm 19.3 11.9 1.8 31 8.1 ESE 30 43 16 23 1024.8 1023.8 0.0
03/10:35pm 19.7 12.7 2.1 31 8.3 ESE 28 48 15 26 1024.8 1023.8 0.0
03/10:30pm 19.8 12.8 2.2 31 8.2 ESE 28 39 15 21 1024.8 1023.8 0.0

Other formats

Comma delimited format used in spreadsheet applications
http://www.bom.gov.au/fwo/IDD60801/IDD60801.94238.axf

JavaScript Object Notation format (JSON) in row-major order
http://www.bom.gov.au/fwo/IDD60801/IDD60801.94238.json

Data quality

Most of these data are generated automatically and are frequently updated. Quality checks on data are not normally performed. It is possible for incorrect values to appear. Refer to information at About Latest Weather Observations and please check the disclaimer before using these data.